NOZ8GB ENGM-EDDB
Flight info
| Callsign | NOZ8GB |
|---|---|
| Flight time | N/A |
| Altitude | 37000 |
| Route | ENGM/19R VIPPA DCT ESOSI DCT SONAL DCT RODEP T280 KETAP KETAP1R |
| Aircraft | B738/M-SADE3GHIJ1LRWXY/LB1 |
Departure
| Time | N/A |
|---|---|
| Airport | Oslo-Gardermoen International Airport (ENGM) |
Arrival
| Time | 2026-04-30 18:48 |
|---|---|
| Airport | Berlin Brandenburg Airport (EDDB) |
| Time | Latitude | Longitude | Altitude | Speed | Heading |
|---|---|---|---|---|---|
| 2026-04-30 17:39 | 59.20910 | 10.36545 | 27921 ft | 441 kts | 197° |
| 2026-04-30 17:41 | 58.96532 | 10.24045 | 30641 ft | 463 kts | 194° |
| 2026-04-30 17:42 | 58.90077 | 10.23120 | 31203 ft | 470 kts | 176° |
| 2026-04-30 17:42 | 58.80309 | 10.24580 | 32338 ft | 467 kts | 176° |
| 2026-04-30 17:43 | 58.73842 | 10.25438 | 33079 ft | 465 kts | 177° |
| 2026-04-30 17:44 | 58.64172 | 10.26632 | 34179 ft | 462 kts | 177° |
| 2026-04-30 17:44 | 58.54732 | 10.29792 | 35046 ft | 461 kts | 158° |
| 2026-04-30 17:46 | 58.39913 | 10.41116 | 36485 ft | 456 kts | 158° |
| 2026-04-30 17:47 | 58.28103 | 10.49893 | 37375 ft | 454 kts | 159° |
| 2026-04-30 17:48 | 58.07492 | 10.65020 | 37377 ft | 454 kts | 159° |
| 2026-04-30 17:50 | 57.83892 | 10.82119 | 37397 ft | 455 kts | 159° |
| 2026-04-30 17:52 | 57.66140 | 10.94823 | 37404 ft | 455 kts | 159° |
| 2026-04-30 17:54 | 57.39618 | 11.13558 | 37405 ft | 451 kts | 159° |
| 2026-04-30 17:56 | 57.16129 | 11.29908 | 37412 ft | 451 kts | 159° |
| 2026-04-30 17:58 | 56.98493 | 11.42039 | 37409 ft | 451 kts | 159° |
| 2026-04-30 18:00 | 56.74965 | 11.58033 | 37408 ft | 452 kts | 159° |
| 2026-04-30 18:01 | 56.60573 | 11.67712 | 37423 ft | 452 kts | 159° |
| 2026-04-30 18:02 | 56.42841 | 11.79528 | 37429 ft | 453 kts | 159° |
| 2026-04-30 18:04 | 56.25094 | 11.91238 | 37430 ft | 453 kts | 159° |
| 2026-04-30 18:06 | 56.01392 | 12.06697 | 37431 ft | 454 kts | 159° |
| 2026-04-30 18:08 | 55.80606 | 12.20089 | 37426 ft | 454 kts | 159° |
| 2026-04-30 18:10 | 55.57838 | 12.34583 | 37428 ft | 453 kts | 159° |
| 2026-04-30 18:11 | 55.37091 | 12.47638 | 37418 ft | 453 kts | 159° |
| 2026-04-30 18:13 | 55.22214 | 12.56909 | 37421 ft | 452 kts | 160° |
| 2026-04-30 18:14 | 55.07420 | 12.66057 | 37417 ft | 452 kts | 160° |
| 2026-04-30 18:15 | 54.89561 | 12.77007 | 37420 ft | 455 kts | 159° |
| 2026-04-30 18:16 | 54.78017 | 12.85957 | 37425 ft | 455 kts | 152° |
| 2026-04-30 18:17 | 54.72306 | 12.90753 | 37420 ft | 456 kts | 153° |
| 2026-04-30 18:18 | 54.63697 | 12.97815 | 37420 ft | 457 kts | 153° |
| 2026-04-30 18:18 | 54.57948 | 13.02478 | 37430 ft | 457 kts | 153° |
| 2026-04-30 18:19 | 54.52185 | 13.07135 | 37428 ft | 457 kts | 153° |
| 2026-04-30 18:19 | 54.49292 | 13.09468 | 37168 ft | 462 kts | 153° |
| 2026-04-30 18:19 | 54.46386 | 13.11810 | 36796 ft | 459 kts | 153° |
| 2026-04-30 18:19 | 54.43506 | 13.14125 | 36383 ft | 454 kts | 153° |
| 2026-04-30 18:20 | 54.40658 | 13.16410 | 35974 ft | 450 kts | 153° |
| 2026-04-30 18:20 | 54.37828 | 13.18678 | 35570 ft | 446 kts | 153° |
| 2026-04-30 18:20 | 54.35065 | 13.20890 | 35185 ft | 443 kts | 153° |
| 2026-04-30 18:20 | 54.32285 | 13.23112 | 34790 ft | 439 kts | 153° |
| 2026-04-30 18:21 | 54.29524 | 13.25317 | 34397 ft | 436 kts | 153° |
| 2026-04-30 18:21 | 54.26782 | 13.27502 | 33947 ft | 433 kts | 152° |
| 2026-04-30 18:21 | 54.24060 | 13.29669 | 33528 ft | 430 kts | 152° |
| 2026-04-30 18:21 | 54.21363 | 13.31813 | 33145 ft | 426 kts | 152° |
| 2026-04-30 18:22 | 54.18689 | 13.33934 | 32788 ft | 422 kts | 152° |
| 2026-04-30 18:22 | 54.13439 | 13.38092 | 32457 ft | 415 kts | 151° |
| 2026-04-30 18:22 | 54.10804 | 13.40179 | 32434 ft | 422 kts | 152° |
| 2026-04-30 18:23 | 54.05400 | 13.44448 | 32430 ft | 432 kts | 152° |
| 2026-04-30 18:23 | 53.99960 | 13.48723 | 32413 ft | 430 kts | 152° |
| 2026-04-30 18:24 | 53.91838 | 13.55082 | 32416 ft | 427 kts | 151° |
| 2026-04-30 18:25 | 53.86447 | 13.59292 | 32415 ft | 426 kts | 151° |
| 2026-04-30 18:25 | 53.78392 | 13.65562 | 32430 ft | 424 kts | 151° |
| 2026-04-30 18:26 | 53.70264 | 13.71603 | 32418 ft | 430 kts | 160° |
| 2026-04-30 18:27 | 53.61563 | 13.72579 | 32392 ft | 403 kts | 181° |
| 2026-04-30 18:27 | 53.58800 | 13.72245 | 32026 ft | 396 kts | 181° |
| 2026-04-30 18:28 | 53.53149 | 13.71590 | 30001 ft | 417 kts | 181° |
| 2026-04-30 18:28 | 53.50239 | 13.71275 | 29000 ft | 422 kts | 181° |
| 2026-04-30 18:28 | 53.44316 | 13.70661 | 26986 ft | 431 kts | 180° |
| 2026-04-30 18:29 | 53.41312 | 13.70356 | 26020 ft | 434 kts | 180° |
| 2026-04-30 18:29 | 53.32236 | 13.69440 | 23141 ft | 437 kts | 180° |
| 2026-04-30 18:30 | 53.26181 | 13.68829 | 21110 ft | 434 kts | 180° |
| 2026-04-30 18:30 | 53.20185 | 13.68225 | 19330 ft | 429 kts | 179° |
| 2026-04-30 18:31 | 53.17214 | 13.67928 | 18867 ft | 425 kts | 179° |
| 2026-04-30 18:31 | 53.11346 | 13.67341 | 17722 ft | 419 kts | 179° |
| 2026-04-30 18:32 | 53.05582 | 13.66765 | 16651 ft | 411 kts | 179° |
| 2026-04-30 18:32 | 53.02736 | 13.66481 | 16131 ft | 407 kts | 179° |
| 2026-04-30 18:32 | 52.97132 | 13.65916 | 15122 ft | 401 kts | 181° |
| 2026-04-30 18:33 | 52.94402 | 13.65101 | 14845 ft | 397 kts | 193° |
| 2026-04-30 18:33 | 52.89480 | 13.61379 | 14351 ft | 384 kts | 212° |
| 2026-04-30 18:33 | 52.87359 | 13.58880 | 14147 ft | 375 kts | 214° |
| 2026-04-30 18:34 | 52.85272 | 13.56372 | 13933 ft | 366 kts | 214° |
| 2026-04-30 18:34 | 52.81212 | 13.51539 | 13401 ft | 354 kts | 214° |
| 2026-04-30 18:34 | 52.79231 | 13.49187 | 13130 ft | 348 kts | 214° |
| 2026-04-30 18:35 | 52.77278 | 13.46869 | 12865 ft | 343 kts | 214° |
| 2026-04-30 18:35 | 52.75356 | 13.44589 | 12605 ft | 338 kts | 214° |
| 2026-04-30 18:35 | 52.73459 | 13.42341 | 12347 ft | 333 kts | 214° |
| 2026-04-30 18:36 | 52.69749 | 13.37948 | 11828 ft | 325 kts | 214° |
| 2026-04-30 18:36 | 52.67915 | 13.35781 | 11519 ft | 323 kts | 214° |
| 2026-04-30 18:36 | 52.64265 | 13.31474 | 10816 ft | 323 kts | 214° |
| 2026-04-30 18:37 | 52.62495 | 13.29388 | 10515 ft | 322 kts | 214° |
| 2026-04-30 18:37 | 52.60624 | 13.27185 | 10180 ft | 320 kts | 215° |
| 2026-04-30 18:37 | 52.58814 | 13.25056 | 9831 ft | 319 kts | 214° |
| 2026-04-30 18:37 | 52.57017 | 13.22944 | 9496 ft | 317 kts | 214° |
| 2026-04-30 18:38 | 52.55229 | 13.20845 | 9179 ft | 314 kts | 214° |
| 2026-04-30 18:38 | 52.53456 | 13.18766 | 8871 ft | 312 kts | 215° |
| 2026-04-30 18:38 | 52.51699 | 13.16708 | 8571 ft | 309 kts | 214° |
| 2026-04-30 18:38 | 52.49916 | 13.14622 | 7916 ft | 319 kts | 214° |
| 2026-04-30 18:39 | 52.48120 | 13.12522 | 7496 ft | 313 kts | 214° |
| 2026-04-30 18:39 | 52.46381 | 13.10489 | 7171 ft | 302 kts | 214° |
| 2026-04-30 18:39 | 52.44696 | 13.08520 | 6885 ft | 292 kts | 214° |
| 2026-04-30 18:39 | 52.43056 | 13.06609 | 6538 ft | 290 kts | 214° |
| 2026-04-30 18:40 | 52.41395 | 13.04676 | 6041 ft | 295 kts | 215° |
| 2026-04-30 18:40 | 52.39723 | 13.02764 | 5698 ft | 288 kts | 211° |
| 2026-04-30 18:40 | 52.37885 | 13.01748 | 5397 ft | 276 kts | 182° |
| 2026-04-30 18:40 | 52.36033 | 13.02066 | 5147 ft | 263 kts | 163° |
| 2026-04-30 18:41 | 52.34357 | 13.03107 | 4903 ft | 253 kts | 151° |
| 2026-04-30 18:41 | 52.33063 | 13.04903 | 4656 ft | 239 kts | 123° |
| 2026-04-30 18:41 | 52.32235 | 13.07149 | 4498 ft | 226 kts | 117° |
| 2026-04-30 18:41 | 52.31508 | 13.09350 | 4337 ft | 215 kts | 116° |
| 2026-04-30 18:42 | 52.30819 | 13.11461 | 4182 ft | 205 kts | 116° |
| 2026-04-30 18:42 | 52.29536 | 13.15429 | 3903 ft | 191 kts | 112° |
| 2026-04-30 18:42 | 52.29368 | 13.17444 | 3766 ft | 174 kts | 68° |
| 2026-04-30 18:45 | 52.33611 | 13.35100 | 1889 ft | 153 kts | 66° |
| 2026-04-30 18:45 | 52.33993 | 13.36725 | 1665 ft | 152 kts | 66° |
| 2026-04-30 18:45 | 52.34370 | 13.38318 | 1443 ft | 149 kts | 66° |
| 2026-04-30 18:46 | 52.34727 | 13.39874 | 1254 ft | 146 kts | 66° |
| 2026-04-30 18:46 | 52.35097 | 13.41427 | 1056 ft | 146 kts | 66° |
| 2026-04-30 18:46 | 52.35466 | 13.42970 | 877 ft | 146 kts | 67° |
| 2026-04-30 18:46 | 52.35830 | 13.44518 | 678 ft | 146 kts | 69° |
| 2026-04-30 18:47 | 52.36186 | 13.46045 | 484 ft | 141 kts | 69° |
| 2026-04-30 18:47 | 52.36543 | 13.47534 | 308 ft | 141 kts | 69° |
| 2026-04-30 18:47 | 52.36892 | 13.49014 | 158 ft | 137 kts | 68° |
| 2026-04-30 18:47 | 52.37180 | 13.50237 | 154 ft | 83 kts | 69° |
| 2026-04-30 18:48 | 52.37305 | 13.50802 | 154 ft | 26 kts | 83° |
| 2026-04-30 18:48 | 52.37303 | 13.51000 | 154 ft | 13 kts | 96° |
| 2026-04-30 18:48 | 52.37292 | 13.51128 | 154 ft | 9 kts | 98° |
| 2026-04-30 18:48 | 52.37284 | 13.51224 | 154 ft | 7 kts | 98° |
| 2026-04-30 18:49 | 52.37275 | 13.51303 | 154 ft | 7 kts | 105° |
| 2026-04-30 18:49 | 52.37257 | 13.51373 | 154 ft | 6 kts | 130° |
| 2026-04-30 18:49 | 52.37233 | 13.51398 | 154 ft | 4 kts | 156° |
| 2026-04-30 18:49 | 52.37209 | 13.51413 | 154 ft | 4 kts | 159° |
| 2026-04-30 18:50 | 52.37186 | 13.51427 | 154 ft | 3 kts | 160° |
| 2026-04-30 18:50 | 52.37164 | 13.51440 | 154 ft | 4 kts | 160° |
| 2026-04-30 18:50 | 52.37123 | 13.51464 | 154 ft | 9 kts | 160° |
| 2026-04-30 18:50 | 52.37061 | 13.51479 | 154 ft | 9 kts | 201° |
| 2026-04-30 18:51 | 52.37027 | 13.51394 | 154 ft | 9 kts | 249° |
| 2026-04-30 18:51 | 52.37000 | 13.51279 | 154 ft | 13 kts | 248° |
| 2026-04-30 18:51 | 52.36967 | 13.51143 | 154 ft | 13 kts | 249° |
| 2026-04-30 18:51 | 52.36935 | 13.51009 | 154 ft | 12 kts | 249° |
| 2026-04-30 18:52 | 52.36904 | 13.50879 | 154 ft | 12 kts | 249° |
| 2026-04-30 18:52 | 52.36879 | 13.50774 | 154 ft | 6 kts | 245° |
| 2026-04-30 18:52 | 52.36844 | 13.50773 | 154 ft | 5 kts | 158° |
| 2026-04-30 18:52 | 52.36815 | 13.50792 | 154 ft | 4 kts | 159° |
| 2026-04-30 18:53 | 52.36802 | 13.50800 | 154 ft | 0 kts | 159° |